sensor_id;sensor_type;location;lat;lon;timestamp;temperature;humidity
69715;HTU21D;56981;53.532;49.398;2023-10-31T00:02:09;5.11;89.35
69715;HTU21D;56981;53.532;49.398;2023-10-31T00:04:35;5.12;89.12
69715;HTU21D;56981;53.532;49.398;2023-10-31T00:07:01;5.16;89.38
69715;HTU21D;56981;53.532;49.398;2023-10-31T00:09:27;5.17;89.31
69715;HTU21D;56981;53.532;49.398;2023-10-31T00:11:53;5.20;89.43
69715;HTU21D;56981;53.532;49.398;2023-10-31T00:14:19;5.23;89.32
69715;HTU21D;56981;53.532;49.398;2023-10-31T00:16:45;5.24;89.25
69715;HTU21D;56981;53.532;49.398;2023-10-31T00:19:14;5.31;89.11
69715;HTU21D;56981;53.532;49.398;2023-10-31T00:21:40;5.36;89.11
69715;HTU21D;56981;53.532;49.398;2023-10-31T00:24:07;5.38;89.02
69715;HTU21D;56981;53.532;49.398;2023-10-31T00:26:33;5.43;89.11
69715;HTU21D;56981;53.532;49.398;2023-10-31T00:28:59;5.48;89.26
69715;HTU21D;56981;53.532;49.398;2023-10-31T00:31:25;5.54;89.12
69715;HTU21D;56981;53.532;49.398;2023-10-31T00:33:52;5.61;89.03
69715;HTU21D;56981;53.532;49.398;2023-10-31T00:36:18;5.66;88.80
69715;HTU21D;56981;53.532;49.398;2023-10-31T00:38:44;5.68;88.76
69715;HTU21D;56981;53.532;49.398;2023-10-31T00:41:10;5.74;88.40
69715;HTU21D;56981;53.532;49.398;2023-10-31T00:43:36;5.76;88.31
69715;HTU21D;56981;53.532;49.398;2023-10-31T00:46:03;5.79;88.23
69715;HTU21D;56981;53.532;49.398;2023-10-31T00:48:29;5.83;88.35
69715;HTU21D;56981;53.532;49.398;2023-10-31T00:50:57;5.86;88.18
69715;HTU21D;56981;53.532;49.398;2023-10-31T00:53:24;5.92;88.15
69715;HTU21D;56981;53.532;49.398;2023-10-31T00:55:50;5.94;87.93
69715;HTU21D;56981;53.532;49.398;2023-10-31T00:58:16;5.98;87.93
69715;HTU21D;56981;53.532;49.398;2023-10-31T01:00:42;5.98;87.70
69715;HTU21D;56981;53.532;49.398;2023-10-31T01:03:08;6.04;88.06
69715;HTU21D;56981;53.532;49.398;2023-10-31T01:05:35;6.04;88.28
69715;HTU21D;56981;53.532;49.398;2023-10-31T01:08:01;6.05;88.76
69715;HTU21D;56981;53.532;49.398;2023-10-31T01:10:27;6.07;89.11
69715;HTU21D;56981;53.532;49.398;2023-10-31T01:12:54;6.09;89.41
69715;HTU21D;56981;53.532;49.398;2023-10-31T01:15:20;6.10;89.39
69715;HTU21D;56981;53.532;49.398;2023-10-31T01:17:46;6.10;89.21
69715;HTU21D;56981;53.532;49.398;2023-10-31T01:20:12;6.12;89.38
69715;HTU21D;56981;53.532;49.398;2023-10-31T01:22:39;6.17;89.12
69715;HTU21D;56981;53.532;49.398;2023-10-31T01:25:05;6.19;89.19
69715;HTU21D;56981;53.532;49.398;2023-10-31T01:27:32;6.16;89.28
69715;HTU21D;56981;53.532;49.398;2023-10-31T01:29:58;6.19;89.20
69715;HTU21D;56981;53.532;49.398;2023-10-31T01:32:24;6.20;89.07
69715;HTU21D;56981;53.532;49.398;2023-10-31T01:34:51;6.21;89.09
69715;HTU21D;56981;53.532;49.398;2023-10-31T01:37:17;6.24;89.00
69715;HTU21D;56981;53.532;49.398;2023-10-31T01:39:45;6.31;88.84
69715;HTU21D;56981;53.532;49.398;2023-10-31T01:42:15;6.36;88.62
69715;HTU21D;56981;53.532;49.398;2023-10-31T01:44:41;6.40;88.65
69715;HTU21D;56981;53.532;49.398;2023-10-31T01:47:08;6.46;88.53
69715;HTU21D;56981;53.532;49.398;2023-10-31T01:49:36;6.50;88.67
69715;HTU21D;56981;53.532;49.398;2023-10-31T01:52:05;6.55;88.51
69715;HTU21D;56981;53.532;49.398;2023-10-31T01:54:33;6.55;88.48
69715;HTU21D;56981;53.532;49.398;2023-10-31T01:57:01;6.57;88.35
69715;HTU21D;56981;53.532;49.398;2023-10-31T01:59:28;6.57;88.40
69715;HTU21D;56981;53.532;49.398;2023-10-31T02:01:55;6.60;88.67
69715;HTU21D;56981;53.532;49.398;2023-10-31T02:04:24;6.65;88.54
69715;HTU21D;56981;53.532;49.398;2023-10-31T02:06:50;6.64;88.57
69715;HTU21D;56981;53.532;49.398;2023-10-31T02:09:16;6.64;88.61
69715;HTU21D;56981;53.532;49.398;2023-10-31T02:11:42;6.66;88.51
69715;HTU21D;56981;53.532;49.398;2023-10-31T02:14:08;6.67;88.60
69715;HTU21D;56981;53.532;49.398;2023-10-31T02:16:35;6.67;88.55
69715;HTU21D;56981;53.532;49.398;2023-10-31T02:19:01;6.66;88.73
69715;HTU21D;56981;53.532;49.398;2023-10-31T02:21:27;6.66;88.99
69715;HTU21D;56981;53.532;49.398;2023-10-31T02:23:59;6.65;89.31
69715;HTU21D;56981;53.532;49.398;2023-10-31T02:26:33;6.67;89.54
69715;HTU21D;56981;53.532;49.398;2023-10-31T02:29:00;6.69;89.66
69715;HTU21D;56981;53.532;49.398;2023-10-31T02:31:26;6.71;89.79
69715;HTU21D;56981;53.532;49.398;2023-10-31T02:33:53;6.71;90.01
69715;HTU21D;56981;53.532;49.398;2023-10-31T02:36:20;6.75;90.18
69715;HTU21D;56981;53.532;49.398;2023-10-31T02:38:46;6.78;90.34
69715;HTU21D;56981;53.532;49.398;2023-10-31T02:41:13;6.82;90.32
69715;HTU21D;56981;53.532;49.398;2023-10-31T02:43:40;6.84;90.66
69715;HTU21D;56981;53.532;49.398;2023-10-31T02:46:06;6.85;90.99
69715;HTU21D;56981;53.532;49.398;2023-10-31T02:48:32;6.87;90.82
69715;HTU21D;56981;53.532;49.398;2023-10-31T02:51:04;6.90;90.90
69715;HTU21D;56981;53.532;49.398;2023-10-31T02:53:30;6.93;90.93
69715;HTU21D;56981;53.532;49.398;2023-10-31T02:55:56;6.93;90.89
69715;HTU21D;56981;53.532;49.398;2023-10-31T02:58:23;6.97;90.73
69715;HTU21D;56981;53.532;49.398;2023-10-31T03:00:49;7.01;90.53
69715;HTU21D;56981;53.532;49.398;2023-10-31T03:03:16;7.07;90.41
69715;HTU21D;56981;53.532;49.398;2023-10-31T03:05:42;7.09;90.34
69715;HTU21D;56981;53.532;49.398;2023-10-31T03:08:08;7.14;90.21
69715;HTU21D;56981;53.532;49.398;2023-10-31T03:10:37;7.19;90.06
69715;HTU21D;56981;53.532;49.398;2023-10-31T03:13:03;7.24;89.76
69715;HTU21D;56981;53.532;49.398;2023-10-31T03:15:30;7.27;89.59
69715;HTU21D;56981;53.532;49.398;2023-10-31T03:17:56;7.32;89.55
69715;HTU21D;56981;53.532;49.398;2023-10-31T03:20:23;7.35;89.47
69715;HTU21D;56981;53.532;49.398;2023-10-31T03:22:49;7.40;89.15
69715;HTU21D;56981;53.532;49.398;2023-10-31T03:25:16;7.42;89.57
69715;HTU21D;56981;53.532;49.398;2023-10-31T03:27:42;7.43;89.37
69715;HTU21D;56981;53.532;49.398;2023-10-31T03:30:08;7.45;89.04
69715;HTU21D;56981;53.532;49.398;2023-10-31T03:32:35;7.48;89.06
69715;HTU21D;56981;53.532;49.398;2023-10-31T03:35:01;7.48;89.14
69715;HTU21D;56981;53.532;49.398;2023-10-31T03:37:27;7.53;89.03
69715;HTU21D;56981;53.532;49.398;2023-10-31T03:39:53;7.58;89.01
69715;HTU21D;56981;53.532;49.398;2023-10-31T03:42:19;7.64;88.89
69715;HTU21D;56981;53.532;49.398;2023-10-31T03:44:46;7.67;88.85
69715;HTU21D;56981;53.532;49.398;2023-10-31T03:47:12;7.69;88.41
69715;HTU21D;56981;53.532;49.398;2023-10-31T03:49:39;7.68;88.38
69715;HTU21D;56981;53.532;49.398;2023-10-31T03:52:05;7.68;88.49
69715;HTU21D;56981;53.532;49.398;2023-10-31T03:54:32;7.70;88.67
69715;HTU21D;56981;53.532;49.398;2023-10-31T03:56:58;7.69;88.46
69715;HTU21D;56981;53.532;49.398;2023-10-31T03:59:25;7.77;88.32
69715;HTU21D;56981;53.532;49.398;2023-10-31T04:01:51;7.75;88.21
69715;HTU21D;56981;53.532;49.398;2023-10-31T04:04:17;7.77;88.41
69715;HTU21D;56981;53.532;49.398;2023-10-31T04:06:43;7.75;88.42
69715;HTU21D;56981;53.532;49.398;2023-10-31T04:09:09;7.78;88.44
69715;HTU21D;56981;53.532;49.398;2023-10-31T04:11:36;7.81;88.41
69715;HTU21D;56981;53.532;49.398;2023-10-31T04:14:02;7.83;88.44
69715;HTU21D;56981;53.532;49.398;2023-10-31T04:16:30;7.84;88.56
69715;HTU21D;56981;53.532;49.398;2023-10-31T04:18:56;7.88;88.54
69715;HTU21D;56981;53.532;49.398;2023-10-31T04:21:22;7.92;88.46
69715;HTU21D;56981;53.532;49.398;2023-10-31T04:23:48;7.99;88.28
69715;HTU21D;56981;53.532;49.398;2023-10-31T04:26:15;8.01;88.25
69715;HTU21D;56981;53.532;49.398;2023-10-31T04:28:41;8.05;88.29
69715;HTU21D;56981;53.532;49.398;2023-10-31T04:31:08;8.04;88.33
69715;HTU21D;56981;53.532;49.398;2023-10-31T04:33:34;8.08;88.29
69715;HTU21D;56981;53.532;49.398;2023-10-31T04:36:00;8.16;88.10
69715;HTU21D;56981;53.532;49.398;2023-10-31T04:38:28;8.16;88.15
69715;HTU21D;56981;53.532;49.398;2023-10-31T04:40:54;8.20;88.23
69715;HTU21D;56981;53.532;49.398;2023-10-31T04:43:20;8.24;88.24
69715;HTU21D;56981;53.532;49.398;2023-10-31T04:45:46;8.29;88.28
69715;HTU21D;56981;53.532;49.398;2023-10-31T04:48:13;8.35;88.29
69715;HTU21D;56981;53.532;49.398;2023-10-31T04:50:39;8.39;88.31
69715;HTU21D;56981;53.532;49.398;2023-10-31T04:53:06;8.46;88.17
69715;HTU21D;56981;53.532;49.398;2023-10-31T04:55:32;8.57;87.86
69715;HTU21D;56981;53.532;49.398;2023-10-31T04:57:58;8.68;87.46
69715;HTU21D;56981;53.532;49.398;2023-10-31T05:00:25;8.77;87.15
69715;HTU21D;56981;53.532;49.398;2023-10-31T05:02:51;8.82;86.93
69715;HTU21D;56981;53.532;49.398;2023-10-31T05:05:18;8.85;86.77
69715;HTU21D;56981;53.532;49.398;2023-10-31T05:07:45;8.87;86.86
69715;HTU21D;56981;53.532;49.398;2023-10-31T05:10:12;8.91;86.78
69715;HTU21D;56981;53.532;49.398;2023-10-31T05:12:38;8.95;86.75
69715;HTU21D;56981;53.532;49.398;2023-10-31T05:15:05;8.98;86.70
69715;HTU21D;56981;53.532;49.398;2023-10-31T05:17:32;9.04;87.03
69715;HTU21D;56981;53.532;49.398;2023-10-31T05:19:58;9.06;86.58
69715;HTU21D;56981;53.532;49.398;2023-10-31T05:22:25;9.09;86.45
69715;HTU21D;56981;53.532;49.398;2023-10-31T05:24:51;9.11;86.53
69715;HTU21D;56981;53.532;49.398;2023-10-31T05:27:17;9.18;86.41
69715;HTU21D;56981;53.532;49.398;2023-10-31T05:29:43;9.27;86.06
69715;HTU21D;56981;53.532;49.398;2023-10-31T05:32:10;9.38;85.98
69715;HTU21D;56981;53.532;49.398;2023-10-31T05:34:36;9.44;85.64
69715;HTU21D;56981;53.532;49.398;2023-10-31T05:37:02;9.50;85.32
69715;HTU21D;56981;53.532;49.398;2023-10-31T05:39:31;9.59;85.13
69715;HTU21D;56981;53.532;49.398;2023-10-31T05:41:58;9.60;84.67
69715;HTU21D;56981;53.532;49.398;2023-10-31T05:44:24;9.66;84.71
69715;HTU21D;56981;53.532;49.398;2023-10-31T05:46:50;9.70;84.21
69715;HTU21D;56981;53.532;49.398;2023-10-31T05:49:16;9.75;84.39
69715;HTU21D;56981;53.532;49.398;2023-10-31T05:51:43;9.77;84.34
69715;HTU21D;56981;53.532;49.398;2023-10-31T05:54:09;9.76;84.33
69715;HTU21D;56981;53.532;49.398;2023-10-31T05:56:35;9.74;84.41
69715;HTU21D;56981;53.532;49.398;2023-10-31T05:59:02;9.74;84.24
69715;HTU21D;56981;53.532;49.398;2023-10-31T06:01:28;9.70;84.47
69715;HTU21D;56981;53.532;49.398;2023-10-31T06:03:55;9.70;84.39
69715;HTU21D;56981;53.532;49.398;2023-10-31T06:06:22;9.68;84.48
69715;HTU21D;56981;53.532;49.398;2023-10-31T06:08:48;9.65;84.57
69715;HTU21D;56981;53.532;49.398;2023-10-31T06:11:15;9.65;84.69
69715;HTU21D;56981;53.532;49.398;2023-10-31T06:13:41;9.62;84.81
69715;HTU21D;56981;53.532;49.398;2023-10-31T06:16:08;9.54;85.00
69715;HTU21D;56981;53.532;49.398;2023-10-31T06:18:34;9.56;85.11
69715;HTU21D;56981;53.532;49.398;2023-10-31T06:21:01;9.54;85.35
69715;HTU21D;56981;53.532;49.398;2023-10-31T06:23:30;9.51;85.60
69715;HTU21D;56981;53.532;49.398;2023-10-31T06:25:57;9.49;86.16
69715;HTU21D;56981;53.532;49.398;2023-10-31T06:28:24;9.48;86.80
69715;HTU21D;56981;53.532;49.398;2023-10-31T06:30:52;9.44;87.78
69715;HTU21D;56981;53.532;49.398;2023-10-31T06:33:19;9.47;88.47
69715;HTU21D;56981;53.532;49.398;2023-10-31T06:35:46;9.44;88.82
69715;HTU21D;56981;53.532;49.398;2023-10-31T06:38:12;9.42;90.08
69715;HTU21D;56981;53.532;49.398;2023-10-31T06:40:39;9.44;90.15
69715;HTU21D;56981;53.532;49.398;2023-10-31T06:43:05;9.40;90.54
69715;HTU21D;56981;53.532;49.398;2023-10-31T06:45:31;9.33;91.48
69715;HTU21D;56981;53.532;49.398;2023-10-31T06:47:57;9.26;92.08
69715;HTU21D;56981;53.532;49.398;2023-10-31T06:50:24;9.23;92.31
69715;HTU21D;56981;53.532;49.398;2023-10-31T06:52:50;9.20;92.67
69715;HTU21D;56981;53.532;49.398;2023-10-31T06:55:16;9.18;92.88
69715;HTU21D;56981;53.532;49.398;2023-10-31T06:57:43;9.19;92.96
69715;HTU21D;56981;53.532;49.398;2023-10-31T07:00:17;9.18;93.45
69715;HTU21D;56981;53.532;49.398;2023-10-31T07:02:43;9.19;93.42
69715;HTU21D;56981;53.532;49.398;2023-10-31T07:05:09;9.20;93.33
69715;HTU21D;56981;53.532;49.398;2023-10-31T07:07:36;9.19;93.38
69715;HTU21D;56981;53.532;49.398;2023-10-31T07:10:02;9.16;93.72
69715;HTU21D;56981;53.532;49.398;2023-10-31T07:12:29;9.15;93.80
69715;HTU21D;56981;53.532;49.398;2023-10-31T07:14:58;9.15;94.36
69715;HTU21D;56981;53.532;49.398;2023-10-31T07:17:25;9.14;94.42
69715;HTU21D;56981;53.532;49.398;2023-10-31T07:19:52;9.16;94.69
69715;HTU21D;56981;53.532;49.398;2023-10-31T07:22:18;9.17;94.99
69715;HTU21D;56981;53.532;49.398;2023-10-31T07:24:44;9.21;94.69
69715;HTU21D;56981;53.532;49.398;2023-10-31T07:27:10;9.24;94.75
69715;HTU21D;56981;53.532;49.398;2023-10-31T07:29:41;9.25;94.63
69715;HTU21D;56981;53.532;49.398;2023-10-31T07:32:08;9.31;94.70
69715;HTU21D;56981;53.532;49.398;2023-10-31T07:34:35;9.31;94.52
69715;HTU21D;56981;53.532;49.398;2023-10-31T07:37:01;9.29;94.67
69715;HTU21D;56981;53.532;49.398;2023-10-31T07:39:27;9.34;94.74
69715;HTU21D;56981;53.532;49.398;2023-10-31T07:41:57;9.35;94.56
69715;HTU21D;56981;53.532;49.398;2023-10-31T07:44:26;9.35;94.67
69715;HTU21D;56981;53.532;49.398;2023-10-31T07:46:57;9.36;94.90
69715;HTU21D;56981;53.532;49.398;2023-10-31T07:49:26;9.40;95.26
69715;HTU21D;56981;53.532;49.398;2023-10-31T07:51:52;9.49;95.10
69715;HTU21D;56981;53.532;49.398;2023-10-31T07:54:19;9.60;94.72
69715;HTU21D;56981;53.532;49.398;2023-10-31T07:56:49;9.75;94.67
69715;HTU21D;56981;53.532;49.398;2023-10-31T07:59:21;9.89;94.01
69715;HTU21D;56981;53.532;49.398;2023-10-31T08:01:47;9.98;93.66
69715;HTU21D;56981;53.532;49.398;2023-10-31T08:04:14;10.09;93.18
69715;HTU21D;56981;53.532;49.398;2023-10-31T08:06:42;10.12;93.01
69715;HTU21D;56981;53.532;49.398;2023-10-31T08:09:08;10.18;92.93
69715;HTU21D;56981;53.532;49.398;2023-10-31T08:11:34;10.24;92.58
69715;HTU21D;56981;53.532;49.398;2023-10-31T08:14:01;10.34;92.54
69715;HTU21D;56981;53.532;49.398;2023-10-31T08:16:29;10.67;91.85
69715;HTU21D;56981;53.532;49.398;2023-10-31T08:18:56;10.95;90.37
69715;HTU21D;56981;53.532;49.398;2023-10-31T08:21:22;11.22;89.62
69715;HTU21D;56981;53.532;49.398;2023-10-31T08:23:48;11.27;89.54
69715;HTU21D;56981;53.532;49.398;2023-10-31T08:26:14;11.34;89.15
69715;HTU21D;56981;53.532;49.398;2023-10-31T08:28:43;11.41;88.92
69715;HTU21D;56981;53.532;49.398;2023-10-31T08:31:09;11.58;89.57
69715;HTU21D;56981;53.532;49.398;2023-10-31T08:33:37;11.75;88.78
69715;HTU21D;56981;53.532;49.398;2023-10-31T08:36:04;11.96;88.51
69715;HTU21D;56981;53.532;49.398;2023-10-31T08:38:32;11.87;87.79
69715;HTU21D;56981;53.532;49.398;2023-10-31T08:40:58;11.85;87.54
69715;HTU21D;56981;53.532;49.398;2023-10-31T08:43:25;11.74;87.95
69715;HTU21D;56981;53.532;49.398;2023-10-31T08:45:52;11.69;87.67
69715;HTU21D;56981;53.532;49.398;2023-10-31T08:48:21;11.53;88.35
69715;HTU21D;56981;53.532;49.398;2023-10-31T08:50:49;11.52;88.32
69715;HTU21D;56981;53.532;49.398;2023-10-31T08:53:21;11.59;88.38
69715;HTU21D;56981;53.532;49.398;2023-10-31T08:55:48;11.71;88.15
69715;HTU21D;56981;53.532;49.398;2023-10-31T08:58:14;11.73;88.35
69715;HTU21D;56981;53.532;49.398;2023-10-31T09:00:41;11.74;88.29
69715;HTU21D;56981;53.532;49.398;2023-10-31T09:03:07;11.98;87.96
69715;HTU21D;56981;53.532;49.398;2023-10-31T09:05:34;12.15;87.39
69715;HTU21D;56981;53.532;49.398;2023-10-31T09:08:00;12.13;86.94
69715;HTU21D;56981;53.532;49.398;2023-10-31T09:10:27;12.19;87.59
69715;HTU21D;56981;53.532;49.398;2023-10-31T09:12:55;12.28;87.38
69715;HTU21D;56981;53.532;49.398;2023-10-31T09:15:22;12.50;86.19
69715;HTU21D;56981;53.532;49.398;2023-10-31T09:17:48;12.53;85.71
69715;HTU21D;56981;53.532;49.398;2023-10-31T09:20:17;12.53;85.37
69715;HTU21D;56981;53.532;49.398;2023-10-31T09:22:43;12.42;85.87
69715;HTU21D;56981;53.532;49.398;2023-10-31T09:25:10;12.53;85.48
69715;HTU21D;56981;53.532;49.398;2023-10-31T09:27:38;12.57;85.43
69715;HTU21D;56981;53.532;49.398;2023-10-31T09:30:06;12.53;85.32
69715;HTU21D;56981;53.532;49.398;2023-10-31T09:32:32;12.47;85.52
69715;HTU21D;56981;53.532;49.398;2023-10-31T09:34:59;12.44;85.63
69715;HTU21D;56981;53.532;49.398;2023-10-31T09:37:25;12.44;85.87
69715;HTU21D;56981;53.532;49.398;2023-10-31T09:39:51;12.58;85.29
69715;HTU21D;56981;53.532;49.398;2023-10-31T09:42:17;12.60;85.30
69715;HTU21D;56981;53.532;49.398;2023-10-31T09:44:44;12.60;85.58
69715;HTU21D;56981;53.532;49.398;2023-10-31T09:47:11;12.60;85.42
69715;HTU21D;56981;53.532;49.398;2023-10-31T09:49:38;12.53;85.69
69715;HTU21D;56981;53.532;49.398;2023-10-31T09:52:04;12.50;85.89
69715;HTU21D;56981;53.532;49.398;2023-10-31T09:54:33;12.44;85.81
69715;HTU21D;56981;53.532;49.398;2023-10-31T09:57:00;12.42;86.50
69715;HTU21D;56981;53.532;49.398;2023-10-31T09:59:26;12.46;86.36
69715;HTU21D;56981;53.532;49.398;2023-10-31T10:01:52;12.53;86.21
69715;HTU21D;56981;53.532;49.398;2023-10-31T10:04:18;12.66;85.90
69715;HTU21D;56981;53.532;49.398;2023-10-31T10:06:52;12.74;85.74
69715;HTU21D;56981;53.532;49.398;2023-10-31T10:09:24;12.92;85.07
69715;HTU21D;56981;53.532;49.398;2023-10-31T10:11:51;12.93;83.97
69715;HTU21D;56981;53.532;49.398;2023-10-31T10:14:18;13.06;83.75
69715;HTU21D;56981;53.532;49.398;2023-10-31T10:16:44;13.16;83.67
69715;HTU21D;56981;53.532;49.398;2023-10-31T10:19:15;13.21;82.93
69715;HTU21D;56981;53.532;49.398;2023-10-31T10:21:47;13.09;83.29
69715;HTU21D;56981;53.532;49.398;2023-10-31T10:24:15;12.97;83.72
69715;HTU21D;56981;53.532;49.398;2023-10-31T10:26:41;12.87;84.19
69715;HTU21D;56981;53.532;49.398;2023-10-31T10:29:07;12.84;84.09
69715;HTU21D;56981;53.532;49.398;2023-10-31T10:31:33;12.74;84.24
69715;HTU21D;56981;53.532;49.398;2023-10-31T10:33:59;12.60;84.30
69715;HTU21D;56981;53.532;49.398;2023-10-31T10:36:27;12.66;84.55
69715;HTU21D;56981;53.532;49.398;2023-10-31T10:38:56;12.77;84.23
69715;HTU21D;56981;53.532;49.398;2023-10-31T10:41:27;12.84;83.30
69715;HTU21D;56981;53.532;49.398;2023-10-31T10:44:02;12.79;83.21
69715;HTU21D;56981;53.532;49.398;2023-10-31T10:46:30;12.82;83.30
69715;HTU21D;56981;53.532;49.398;2023-10-31T10:48:59;12.95;82.94
69715;HTU21D;56981;53.532;49.398;2023-10-31T10:51:40;13.03;81.90
69715;HTU21D;56981;53.532;49.398;2023-10-31T10:54:15;13.10;81.40
69715;HTU21D;56981;53.532;49.398;2023-10-31T10:56:53;13.07;80.88
69715;HTU21D;56981;53.532;49.398;2023-10-31T10:59:41;13.02;81.22
69715;HTU21D;56981;53.532;49.398;2023-10-31T11:02:09;13.10;81.25
69715;HTU21D;56981;53.532;49.398;2023-10-31T11:04:37;13.04;80.99
69715;HTU21D;56981;53.532;49.398;2023-10-31T11:07:05;13.08;80.66
69715;HTU21D;56981;53.532;49.398;2023-10-31T11:09:32;13.14;80.14
69715;HTU21D;56981;53.532;49.398;2023-10-31T11:11:59;13.20;79.97
69715;HTU21D;56981;53.532;49.398;2023-10-31T11:14:25;13.17;79.90
69715;HTU21D;56981;53.532;49.398;2023-10-31T11:16:55;13.20;79.86
69715;HTU21D;56981;53.532;49.398;2023-10-31T11:19:23;13.10;79.21
69715;HTU21D;56981;53.532;49.398;2023-10-31T11:22:10;13.07;79.59
69715;HTU21D;56981;53.532;49.398;2023-10-31T11:24:37;13.10;78.93
69715;HTU21D;56981;53.532;49.398;2023-10-31T11:27:05;13.11;79.39
69715;HTU21D;56981;53.532;49.398;2023-10-31T11:29:32;13.16;79.36
69715;HTU21D;56981;53.532;49.398;2023-10-31T11:31:59;13.15;78.88
69715;HTU21D;56981;53.532;49.398;2023-10-31T11:34:30;13.24;78.18
69715;HTU21D;56981;53.532;49.398;2023-10-31T11:39:41;13.36;77.71
69715;HTU21D;56981;53.532;49.398;2023-10-31T11:42:17;13.34;76.78
69715;HTU21D;56981;53.532;49.398;2023-10-31T11:45:03;13.44;75.51
69715;HTU21D;56981;53.532;49.398;2023-10-31T11:47:49;13.45;76.28
69715;HTU21D;56981;53.532;49.398;2023-10-31T11:50:17;13.48;75.53
69715;HTU21D;56981;53.532;49.398;2023-10-31T11:52:44;13.55;75.60
69715;HTU21D;56981;53.532;49.398;2023-10-31T11:55:12;13.66;75.28
69715;HTU21D;56981;53.532;49.398;2023-10-31T11:57:39;13.68;74.90
69715;HTU21D;56981;53.532;49.398;2023-10-31T12:00:06;13.66;75.25
69715;HTU21D;56981;53.532;49.398;2023-10-31T12:02:36;13.68;74.50
69715;HTU21D;56981;53.532;49.398;2023-10-31T12:05:11;13.68;74.16
69715;HTU21D;56981;53.532;49.398;2023-10-31T12:07:48;13.56;72.38
69715;HTU21D;56981;53.532;49.398;2023-10-31T12:10:24;13.36;73.36
69715;HTU21D;56981;53.532;49.398;2023-10-31T12:12:51;13.23;74.09
69715;HTU21D;56981;53.532;49.398;2023-10-31T12:15:17;13.18;74.14
69715;HTU21D;56981;53.532;49.398;2023-10-31T12:17:44;13.10;72.92
69715;HTU21D;56981;53.532;49.398;2023-10-31T12:20:11;12.99;73.49
69715;HTU21D;56981;53.532;49.398;2023-10-31T12:22:37;12.90;73.34
69715;HTU21D;56981;53.532;49.398;2023-10-31T12:25:06;12.82;73.92
69715;HTU21D;56981;53.532;49.398;2023-10-31T12:27:46;12.76;74.00
69715;HTU21D;56981;53.532;49.398;2023-10-31T12:30:14;12.60;74.25
69715;HTU21D;56981;53.532;49.398;2023-10-31T12:32:41;12.53;75.09
69715;HTU21D;56981;53.532;49.398;2023-10-31T12:35:19;12.48;74.54
69715;HTU21D;56981;53.532;49.398;2023-10-31T12:37:47;12.48;75.39
69715;HTU21D;56981;53.532;49.398;2023-10-31T12:40:18;12.36;74.86
69715;HTU21D;56981;53.532;49.398;2023-10-31T12:42:46;12.33;75.73
69715;HTU21D;56981;53.532;49.398;2023-10-31T12:45:12;12.28;75.21
69715;HTU21D;56981;53.532;49.398;2023-10-31T12:47:41;12.26;75.65
69715;HTU21D;56981;53.532;49.398;2023-10-31T12:50:08;12.21;76.29
69715;HTU21D;56981;53.532;49.398;2023-10-31T12:52:54;12.17;77.54
69715;HTU21D;56981;53.532;49.398;2023-10-31T12:55:21;12.07;75.95
69715;HTU21D;56981;53.532;49.398;2023-10-31T12:57:49;12.08;76.62
69715;HTU21D;56981;53.532;49.398;2023-10-31T13:00:16;12.08;77.91
69715;HTU21D;56981;53.532;49.398;2023-10-31T13:02:51;12.01;76.98
69715;HTU21D;56981;53.532;49.398;2023-10-31T13:05:18;12.00;77.41
69715;HTU21D;56981;53.532;49.398;2023-10-31T13:07:48;11.94;76.65
69715;HTU21D;56981;53.532;49.398;2023-10-31T13:10:16;11.88;77.24
69715;HTU21D;56981;53.532;49.398;2023-10-31T13:12:49;11.82;76.32
69715;HTU21D;56981;53.532;49.398;2023-10-31T13:15:17;11.68;76.92
69715;HTU21D;56981;53.532;49.398;2023-10-31T13:17:51;11.57;78.21
69715;HTU21D;56981;53.532;49.398;2023-10-31T13:20:19;11.51;77.75
69715;HTU21D;56981;53.532;49.398;2023-10-31T13:22:45;11.44;78.18
69715;HTU21D;56981;53.532;49.398;2023-10-31T13:25:13;11.39;78.24
69715;HTU21D;56981;53.532;49.398;2023-10-31T13:27:41;11.29;79.20
69715;HTU21D;56981;53.532;49.398;2023-10-31T13:30:10;11.28;79.27
69715;HTU21D;56981;53.532;49.398;2023-10-31T13:32:40;11.28;80.12
69715;HTU21D;56981;53.532;49.398;2023-10-31T13:35:07;11.25;79.89
69715;HTU21D;56981;53.532;49.398;2023-10-31T13:37:39;11.18;79.33
69715;HTU21D;56981;53.532;49.398;2023-10-31T13:40:06;11.23;79.46
69715;HTU21D;56981;53.532;49.398;2023-10-31T13:42:35;11.24;79.38
69715;HTU21D;56981;53.532;49.398;2023-10-31T13:45:02;11.17;79.56
69715;HTU21D;56981;53.532;49.398;2023-10-31T13:47:28;11.09;80.06
69715;HTU21D;56981;53.532;49.398;2023-10-31T13:49:56;11.08;79.32
69715;HTU21D;56981;53.532;49.398;2023-10-31T13:52:23;10.97;79.75
69715;HTU21D;56981;53.532;49.398;2023-10-31T13:54:49;10.92;80.24
69715;HTU21D;56981;53.532;49.398;2023-10-31T13:57:16;10.89;80.48
69715;HTU21D;56981;53.532;49.398;2023-10-31T13:59:42;10.86;80.28
69715;HTU21D;56981;53.532;49.398;2023-10-31T14:02:08;10.86;80.23
69715;HTU21D;56981;53.532;49.398;2023-10-31T14:04:34;10.87;80.53
69715;HTU21D;56981;53.532;49.398;2023-10-31T14:07:01;10.83;80.99
69715;HTU21D;56981;53.532;49.398;2023-10-31T14:09:27;10.83;80.78
69715;HTU21D;56981;53.532;49.398;2023-10-31T14:11:53;10.84;81.05
69715;HTU21D;56981;53.532;49.398;2023-10-31T14:14:20;10.89;81.13
69715;HTU21D;56981;53.532;49.398;2023-10-31T14:16:46;10.89;80.30
69715;HTU21D;56981;53.532;49.398;2023-10-31T14:19:13;10.92;79.33
69715;HTU21D;56981;53.532;49.398;2023-10-31T14:21:39;10.87;79.84
69715;HTU21D;56981;53.532;49.398;2023-10-31T14:24:06;10.88;79.70
69715;HTU21D;56981;53.532;49.398;2023-10-31T14:26:34;10.78;79.99
69715;HTU21D;56981;53.532;49.398;2023-10-31T14:29:02;10.72;80.29
69715;HTU21D;56981;53.532;49.398;2023-10-31T14:31:28;10.63;80.24
69715;HTU21D;56981;53.532;49.398;2023-10-31T14:33:55;10.53;80.78
69715;HTU21D;56981;53.532;49.398;2023-10-31T14:36:21;10.44;80.05
69715;HTU21D;56981;53.532;49.398;2023-10-31T14:38:47;10.33;80.86
69715;HTU21D;56981;53.532;49.398;2023-10-31T14:41:14;10.25;81.44
69715;HTU21D;56981;53.532;49.398;2023-10-31T14:43:40;10.24;80.93
69715;HTU21D;56981;53.532;49.398;2023-10-31T14:46:06;10.22;80.20
69715;HTU21D;56981;53.532;49.398;2023-10-31T14:48:33;10.19;80.50
69715;HTU21D;56981;53.532;49.398;2023-10-31T14:51:00;10.16;80.49
69715;HTU21D;56981;53.532;49.398;2023-10-31T14:53:27;10.12;80.53
69715;HTU21D;56981;53.532;49.398;2023-10-31T14:55:53;10.07;80.57
69715;HTU21D;56981;53.532;49.398;2023-10-31T14:58:24;10.00;80.77
69715;HTU21D;56981;53.532;49.398;2023-10-31T15:00:50;9.92;81.17
69715;HTU21D;56981;53.532;49.398;2023-10-31T15:03:17;9.89;81.75
69715;HTU21D;56981;53.532;49.398;2023-10-31T15:05:43;9.81;82.13
69715;HTU21D;56981;53.532;49.398;2023-10-31T15:08:10;9.76;82.04
69715;HTU21D;56981;53.532;49.398;2023-10-31T15:10:43;9.65;82.88
69715;HTU21D;56981;53.532;49.398;2023-10-31T15:13:10;9.56;82.87
69715;HTU21D;56981;53.532;49.398;2023-10-31T15:15:36;9.45;83.71